Time;durP1;ratioP1;P1;durP2;ratioP2;P2;SDS_P1;SDS_P2;PMS_P1;PMS_P2;Temp;Humidity;BMP_temperature;BMP_pressure;BME280_temperature;BME280_humidity;BME280_pressure;Samples;Min_cycle;Max_cycle;Signal;HPM_P1;HPM_P2
2021/01/27 00:00:12;;;;;;;8.45;4.85;;;4.20;76.60;;;;;;5030222;28;20018;-86
2021/01/27 00:02:38;;;;;;;7.97;5.05;;;4.20;76.40;;;;;;5012986;28;20037;-87
2021/01/27 00:05:05;;;;;;;8.60;4.43;;;4.20;76.20;;;;;;5018282;28;20060;-86
2021/01/27 00:07:31;;;;;;;9.45;5.78;;;4.20;76.10;;;;;;5016151;28;20021;-87
2021/01/27 00:09:56;;;;;;;14.20;6.40;;;4.20;76.00;;;;;;5013509;28;20040;-86
2021/01/27 00:12:23;;;;;;;6.50;4.13;;;4.10;75.80;;;;;;5031622;28;20014;-87
2021/01/27 00:14:49;;;;;;;6.03;4.15;;;4.20;76.00;;;;;;5037059;28;20036;-86
2021/01/27 00:17:15;;;;;;;10.48;6.57;;;4.20;76.00;;;;;;5036346;28;20054;-87
2021/01/27 00:19:40;;;;;;;7.63;4.57;;;4.10;75.80;;;;;;5046839;28;20025;-87
2021/01/27 00:22:07;;;;;;;6.93;4.40;;;4.10;75.60;;;;;;5057606;28;20276;-87
2021/01/27 00:24:32;;;;;;;4.90;3.40;;;4.10;75.80;;;;;;5056432;28;20025;-87
2021/01/27 00:26:58;;;;;;;5.82;3.78;;;4.20;75.90;;;;;;5056682;28;20014;-87
2021/01/27 00:29:25;;;;;;;5.70;3.22;;;4.20;75.90;;;;;;5054478;28;20065;-88
2021/01/27 00:31:51;;;;;;;6.32;4.10;;;4.20;75.90;;;;;;5035685;28;20109;-87
2021/01/27 00:34:20;;;;;;;7.07;4.00;;;4.20;75.80;;;;;;5033608;28;20067;-87
2021/01/27 00:36:48;;;;;;;5.53;3.88;;;4.20;75.80;;;;;;5037651;28;20034;-87
2021/01/27 00:39:13;;;;;;;5.90;4.18;;;4.20;75.80;;;;;;5052676;28;20029;-87
2021/01/27 00:41:40;;;;;;;6.38;4.13;;;4.30;75.90;;;;;;5056689;28;20218;-87
2021/01/27 00:44:06;;;;;;;7.50;4.65;;;4.20;75.50;;;;;;5055201;28;20038;-86
2021/01/27 00:46:31;;;;;;;5.72;3.85;;;4.20;75.50;;;;;;5050964;28;20037;-88
2021/01/27 00:48:57;;;;;;;6.80;3.63;;;4.20;75.50;;;;;;5034595;28;20037;-87
2021/01/27 00:51:22;;;;;;;6.90;4.25;;;4.20;75.50;;;;;;5033022;28;20075;-87
2021/01/27 00:53:48;;;;;;;5.53;3.58;;;4.20;75.20;;;;;;5032094;28;20038;-87
2021/01/27 00:56:18;;;;;;;5.40;3.65;;;4.20;75.40;;;;;;5032668;28;20017;-87
2021/01/27 00:58:43;;;;;;;6.57;4.75;;;4.20;75.30;;;;;;5032172;28;20025;-87
2021/01/27 01:01:09;;;;;;;7.45;4.78;;;4.20;75.00;;;;;;5032592;28;20025;-87
2021/01/27 01:03:36;;;;;;;5.90;4.03;;;4.20;74.80;;;;;;5031816;28;20033;-86
2021/01/27 01:06:01;;;;;;;5.63;3.80;;;4.20;74.90;;;;;;5032610;28;20022;-86
2021/01/27 01:08:27;;;;;;;5.10;3.75;;;4.20;75.00;;;;;;5035760;28;20083;-86
2021/01/27 01:10:54;;;;;;;7.00;4.85;;;4.20;74.90;;;;;;5035440;28;20028;-85
2021/01/27 01:13:24;;;;;;;9.05;5.63;;;4.10;74.40;;;;;;5034297;28;20029;-86
2021/01/27 01:15:50;;;;;;;7.97;5.72;;;4.10;74.30;;;;;;5035247;28;20018;-86
2021/01/27 01:18:16;;;;;;;6.00;3.78;;;4.10;74.90;;;;;;5030430;28;20030;-87
2021/01/27 01:20:41;;;;;;;6.35;3.78;;;4.00;74.30;;;;;;5031085;28;20037;-86
2021/01/27 01:23:09;;;;;;;5.05;3.40;;;4.10;74.50;;;;;;5029024;28;20071;-84
2021/01/27 01:25:35;;;;;;;5.57;3.75;;;4.10;74.70;;;;;;5033675;28;20049;-87
2021/01/27 01:28:02;;;;;;;6.78;3.63;;;4.10;74.60;;;;;;5032654;28;20490;-86
2021/01/27 01:30:33;;;;;;;4.95;3.55;;;4.10;74.60;;;;;;5014018;28;20618;-86
2021/01/27 01:33:02;;;;;;;6.38;3.95;;;4.10;74.60;;;;;;5010601;28;20117;-86
2021/01/27 01:35:28;;;;;;;7.35;4.70;;;4.10;75.20;;;;;;5036007;28;20112;-87
2021/01/27 01:37:54;;;;;;;5.88;3.60;;;4.00;74.20;;;;;;5031927;28;20025;-87
2021/01/27 01:40:28;;;;;;;5.57;3.78;;;4.00;74.40;;;;;;5029435;28;20029;-86
2021/01/27 01:43:18;;;;;;;3.78;2.88;;;4.10;74.40;;;;;;5031817;28;20112;-86
2021/01/27 01:45:47;;;;;;;5.25;4.00;;;4.10;74.40;;;;;;5030436;28;20025;-87
2021/01/27 01:48:21;;;;;;;8.00;4.95;;;4.10;74.60;;;;;;5032216;28;20108;-88
2021/01/27 01:50:50;;;;;;;5.80;3.72;;;4.00;74.40;;;;;;5033232;28;20555;-87
2021/01/27 01:53:17;;;;;;;5.00;3.40;;;4.00;74.40;;;;;;5031634;28;20018;-87
2021/01/27 01:55:43;;;;;;;5.60;3.72;;;4.00;74.50;;;;;;5032007;28;20112;-87
2021/01/27 01:58:10;;;;;;;6.40;3.80;;;4.00;74.50;;;;;;5039748;28;20045;-87
2021/01/27 02:00:38;;;;;;;5.20;3.72;;;4.10;74.60;;;;;;5031583;28;20029;-87
2021/01/27 02:03:07;;;;;;;7.72;4.38;;;4.00;74.50;;;;;;5035237;28;20061;-86
2021/01/27 02:05:33;;;;;;;7.88;5.20;;;4.10;74.50;;;;;;5031756;28;20498;-86
2021/01/27 02:07:59;;;;;;;7.68;5.18;;;4.00;74.60;;;;;;5029552;28;20103;-88
2021/01/27 02:10:25;;;;;;;7.00;4.40;;;3.90;74.70;;;;;;5028887;28;20072;-88
2021/01/27 02:13:28;;;;;;;6.00;4.03;;;3.90;74.80;;;;;;5032082;28;20025;-89
2021/01/27 02:16:19;;;;;;;7.65;4.32;;;3.90;75.00;;;;;;5036747;28;20026;-88
2021/01/27 02:18:45;;;;;;;9.35;5.03;;;3.90;75.20;;;;;;5053432;28;20244;-89
2021/01/27 02:21:28;;;;;;;5.68;3.80;;;3.90;75.30;;;;;;5046329;28;20029;-88
2021/01/27 02:24:31;;;;;;;9.00;5.55;;;3.80;76.20;;;;;;5035773;28;20041;-88
2021/01/27 02:27:16;;;;;;;6.70;4.90;;;3.90;75.80;;;;;;5032099;28;20075;-88
2021/01/27 02:29:55;;;;;;;5.68;3.33;;;3.80;75.80;;;;;;5049059;28;20060;-86
2021/01/27 02:32:58;;;;;;;5.40;3.60;;;3.80;76.10;;;;;;5063163;28;20661;-89
2021/01/27 02:35:34;;;;;;;6.50;3.83;;;3.80;76.30;;;;;;5022371;28;20033;-87
2021/01/27 02:38:14;;;;;;;6.30;4.78;;;3.80;76.30;;;;;;5032320;28;20025;-87
2021/01/27 02:40:50;;;;;;;6.70;4.70;;;3.80;76.40;;;;;;5031112;28;20041;-87
2021/01/27 02:43:33;;;;;;;5.50;3.78;;;3.80;76.50;;;;;;5016660;28;20014;-87
2021/01/27 02:46:10;;;;;;;6.13;3.60;;;3.80;76.60;;;;;;5032040;28;20030;-86
2021/01/27 02:48:43;;;;;;;5.43;3.50;;;3.80;76.70;;;;;;5031664;28;20025;-86
2021/01/27 02:51:20;;;;;;;;;;;3.80;76.70;;;;;;5032197;28;20045;-87
2021/01/27 02:54:13;;;;;;;4.97;3.45;;;3.80;76.70;;;;;;5031908;28;19912;-87
2021/01/27 02:56:45;;;;;;;7.72;3.85;;;3.90;76.90;;;;;;5028687;28;20018;-86
2021/01/27 02:59:28;;;;;;;5.53;3.83;;;3.90;76.80;;;;;;5026386;28;20025;-87
2021/01/27 03:02:14;;;;;;;5.82;3.55;;;3.80;76.80;;;;;;5028705;28;20033;-87
2021/01/27 03:04:47;;;;;;;5.20;3.88;;;3.80;76.90;;;;;;5027161;28;20030;-87
2021/01/27 03:07:15;;;;;;;3.08;2.50;;;3.80;77.00;;;;;;5029305;28;20025;-86
2021/01/27 03:09:49;;;;;;;3.22;2.05;;;3.90;77.10;;;;;;5023332;28;20057;-85
2021/01/27 03:12:14;;;;;;;5.70;4.30;;;3.90;77.10;;;;;;5010312;28;20030;-86
2021/01/27 03:14:40;;;;;;;5.22;3.40;;;3.90;76.90;;;;;;5013868;28;20100;-86
2021/01/27 03:17:16;;;;;;;4.47;3.00;;;3.90;76.80;;;;;;5029387;28;20113;-86
2021/01/27 03:20:00;;;;;;;4.72;3.22;;;3.90;77.00;;;;;;5027150;28;20017;-86
2021/01/27 03:22:45;;;;;;;2.97;2.20;;;3.90;76.90;;;;;;5029284;28;20459;-85
2021/01/27 03:25:27;;;;;;;4.40;2.53;;;3.90;77.00;;;;;;5032563;28;20088;-85
2021/01/27 03:28:03;;;;;;;4.65;2.95;;;3.80;77.00;;;;;;5028015;28;20558;-86
2021/01/27 03:30:31;;;;;;;4.55;2.80;;;3.80;77.10;;;;;;5031727;28;20731;-87
2021/01/27 03:33:12;;;;;;;3.80;3.00;;;3.80;77.20;;;;;;5034257;28;20037;-87
2021/01/27 03:35:51;;;;;;;2.80;2.17;;;3.80;77.30;;;;;;5040757;28;20097;-87
2021/01/27 03:38:30;;;;;;;3.72;2.28;;;3.90;77.30;;;;;;5024294;28;20581;-88
2021/01/27 03:41:16;;;;;;;3.38;2.50;;;3.80;77.20;;;;;;5008298;28;20450;-87
2021/01/27 03:44:00;;;;;;;3.42;2.22;;;3.80;77.40;;;;;;5016308;28;20539;-88
2021/01/27 03:46:40;;;;;;;4.00;2.75;;;3.90;77.50;;;;;;5024503;28;20080;-88
2021/01/27 03:49:13;;;;;;;3.22;2.50;;;3.80;77.40;;;;;;5035304;28;20021;-88
2021/01/27 03:51:43;;;;;;;3.55;2.20;;;3.80;77.50;;;;;;5038564;28;20018;-88
2021/01/27 03:54:16;;;;;;;7.18;3.28;;;3.80;77.70;;;;;;5056958;28;20065;-87
2021/01/27 03:56:49;;;;;;;4.88;2.70;;;3.70;77.80;;;;;;5049896;28;20159;-87
2021/01/27 03:59:15;;;;;;;4.05;2.80;;;3.70;78.00;;;;;;5032759;28;20487;-87
2021/01/27 04:02:01;;;;;;;3.20;2.38;;;3.70;78.00;;;;;;5028908;28;20029;-88
2021/01/27 04:04:27;;;;;;;3.20;2.40;;;3.70;78.20;;;;;;5032225;28;20508;-88
2021/01/27 04:06:53;;;;;;;3.53;2.67;;;3.70;78.30;;;;;;5033748;28;20481;-88
2021/01/27 04:09:19;;;;;;;3.65;2.40;;;3.70;78.50;;;;;;5032716;28;20034;-87
2021/01/27 04:11:45;;;;;;;2.92;2.10;;;3.70;78.70;;;;;;5038026;28;20018;-88
2021/01/27 04:14:12;;;;;;;3.58;2.60;;;3.70;78.70;;;;;;5033559;28;20025;-88
2021/01/27 04:16:37;;;;;;;2.22;1.55;;;3.70;78.80;;;;;;5030796;28;20026;-88
2021/01/27 04:19:07;;;;;;;3.90;2.25;;;3.70;78.80;;;;;;5026957;28;20088;-87
2021/01/27 04:21:34;;;;;;;4.82;3.00;;;3.70;78.80;;;;;;5029784;28;20091;-87
2021/01/27 04:24:01;;;;;;;3.22;2.28;;;3.70;78.90;;;;;;5031849;28;20047;-87
2021/01/27 04:26:28;;;;;;;5.13;3.28;;;3.70;79.00;;;;;;5030585;28;20029;-87
2021/01/27 04:28:54;;;;;;;4.00;2.70;;;3.70;79.10;;;;;;5030919;28;20053;-87
2021/01/27 04:31:19;;;;;;;5.00;3.25;;;3.70;79.20;;;;;;5029542;28;20061;-86
2021/01/27 04:33:45;;;;;;;3.35;2.40;;;3.60;79.30;;;;;;5036387;28;20485;-88
2021/01/27 04:36:11;;;;;;;3.85;2.38;;;3.60;79.40;;;;;;5033173;28;20497;-89
2021/01/27 04:38:38;;;;;;;3.08;2.22;;;3.60;79.40;;;;;;5032327;28;20017;-88
2021/01/27 04:41:04;;;;;;;3.58;2.63;;;3.60;79.50;;;;;;5032799;28;20018;-87
2021/01/27 04:43:37;;;;;;;4.55;2.67;;;3.60;79.40;;;;;;5032527;28;20021;-87
2021/01/27 04:46:26;;;;;;;2.85;2.28;;;3.60;79.60;;;;;;5031726;28;20028;-87
2021/01/27 04:48:57;;;;;;;3.53;2.80;;;3.60;79.60;;;;;;5032502;28;20025;-87
2021/01/27 04:51:36;;;;;;;2.83;2.20;;;3.70;79.60;;;;;;5032554;28;20056;-88
2021/01/27 04:54:40;;;;;;;3.80;2.33;;;3.70;79.60;;;;;;5032799;28;20028;-88
2021/01/27 04:57:30;;;;;;;3.50;2.50;;;3.70;79.60;;;;;;4966574;28;20034;-88
2021/01/27 05:00:29;;;;;;;3.25;2.47;;;3.70;79.60;;;;;;5031541;28;20033;-88
2021/01/27 05:03:14;;;;;;;3.42;2.33;;;3.70;79.60;;;;;;5031494;28;20028;-87
2021/01/27 05:05:44;;;;;;;3.50;2.75;;;3.70;79.70;;;;;;5030771;28;20053;-88
2021/01/27 05:08:16;;;;;;;3.15;2.15;;;3.60;79.80;;;;;;5029054;28;20026;-88
2021/01/27 05:10:54;;;;;;;4.07;2.70;;;3.70;79.90;;;;;;5033732;28;20029;-88
2021/01/27 05:13:41;;;;;;;4.50;3.25;;;3.60;80.10;;;;;;5029400;28;20025;-87
2021/01/27 05:16:10;;;;;;;3.55;2.63;;;3.60;80.30;;;;;;5031088;28;20067;-88
2021/01/27 05:18:36;;;;;;;3.95;3.10;;;3.60;80.30;;;;;;5024052;28;20112;-87
2021/01/27 05:21:02;;;;;;;3.47;2.38;;;3.60;80.30;;;;;;5030722;28;20091;-88
2021/01/27 05:23:27;;;;;;;3.97;2.60;;;3.60;80.40;;;;;;5031600;28;20052;-87
2021/01/27 05:26:10;;;;;;;5.03;3.28;;;3.70;80.40;;;;;;5041210;28;20024;-87
2021/01/27 05:28:46;;;;;;;3.85;2.92;;;3.70;80.40;;;;;;5034380;28;20063;-87
2021/01/27 05:31:11;;;;;;;3.30;2.90;;;3.60;80.50;;;;;;5034961;28;20079;-87
2021/01/27 05:33:47;;;;;;;4.75;3.25;;;3.60;80.60;;;;;;5052615;28;20037;-87
2021/01/27 05:36:17;;;;;;;4.82;3.63;;;3.60;80.90;;;;;;5030497;28;20030;-87
2021/01/27 05:38:43;;;;;;;4.95;3.28;;;3.50;81.00;;;;;;5031102;28;20132;-87
2021/01/27 05:41:28;;;;;;;4.72;3.00;;;3.50;81.30;;;;;;5031166;28;20463;-85
2021/01/27 05:44:04;;;;;;;4.88;3.35;;;3.50;81.50;;;;;;5029999;28;20033;-88
2021/01/27 05:46:32;;;;;;;2.33;2.13;;;3.50;81.60;;;;;;5029304;28;20021;-88
2021/01/27 05:48:59;;;;;;;3.67;2.47;;;3.50;81.70;;;;;;5031152;28;20061;-88
2021/01/27 05:51:29;;;;;;;3.13;2.53;;;3.60;81.80;;;;;;5029938;28;20662;-88
2021/01/27 05:53:55;;;;;;;2.85;1.85;;;3.50;81.80;;;;;;5021767;28;20021;-88
2021/01/27 05:56:26;;;;;;;3.47;2.75;;;3.60;81.80;;;;;;5011669;28;20024;-88
2021/01/27 05:58:57;;;;;;;4.30;3.28;;;3.50;81.90;;;;;;5010021;28;20026;-88
2021/01/27 06:01:25;;;;;;;6.18;4.50;;;3.60;82.00;;;;;;5030941;28;20048;-88
2021/01/27 06:04:02;;;;;;;4.22;3.03;;;3.50;82.30;;;;;;5028370;28;20099;-88
2021/01/27 06:06:33;;;;;;;4.85;3.58;;;3.40;82.30;;;;;;5030023;28;20100;-87
2021/01/27 06:09:01;;;;;;;5.30;3.70;;;3.40;82.50;;;;;;5028883;28;20034;-88
2021/01/27 06:11:27;;;;;;;4.40;3.13;;;3.30;82.80;;;;;;5031396;28;20031;-89
2021/01/27 06:14:16;;;;;;;3.45;2.70;;;3.30;83.20;;;;;;5031461;28;20029;-88
2021/01/27 06:16:45;;;;;;;3.80;2.97;;;3.30;83.40;;;;;;5031247;28;20057;-88
2021/01/27 06:19:19;;;;;;;5.15;3.00;;;3.30;83.40;;;;;;5029381;28;20045;-88
2021/01/27 06:22:19;;;;;;;3.80;2.90;;;3.30;83.60;;;;;;5030695;28;20029;-87
2021/01/27 06:24:54;;;;;;;4.55;3.60;;;3.30;83.80;;;;;;5031350;28;20025;-87
2021/01/27 06:27:46;;;;;;;4.07;3.20;;;3.30;83.80;;;;;;5015725;28;20060;-87
2021/01/27 06:30:33;;;;;;;5.00;3.50;;;3.30;84.00;;;;;;5030945;28;20059;-87
2021/01/27 06:33:18;;;;;;;4.35;3.70;;;3.30;84.10;;;;;;5022118;28;20022;-88
2021/01/27 06:35:56;;;;;;;4.05;2.70;;;3.30;84.20;;;;;;5018450;28;20071;-87
2021/01/27 06:38:56;;;;;;;3.10;2.40;;;3.30;84.30;;;;;;5038506;28;20052;-87
2021/01/27 06:41:40;;;;;;;3.70;2.90;;;3.30;84.40;;;;;;5038051;28;20466;-87
2021/01/27 06:44:17;;;;;;;3.95;3.45;;;3.20;84.50;;;;;;5033055;28;20549;-87
2021/01/27 06:46:52;;;;;;;4.85;4.28;;;3.30;84.50;;;;;;5029193;28;20034;-87
2021/01/27 06:49:46;;;;;;;5.10;3.92;;;3.20;84.80;;;;;;5031667;28;20060;-87
2021/01/27 06:52:22;;;;;;;;;;;3.20;85.10;;;;;;5032512;28;20403;-90
2021/01/27 06:55:20;;;;;;;4.93;4.18;;;3.20;85.00;;;;;;5039364;28;19916;-88
2021/01/27 06:58:15;;;;;;;5.82;5.22;;;3.20;85.00;;;;;;5022165;28;20060;-87
2021/01/27 07:01:21;;;;;;;4.03;3.05;;;3.10;85.10;;;;;;5035091;28;20022;-88
2021/01/27 07:04:10;;;;;;;4.65;3.67;;;3.10;85.40;;;;;;5024831;28;20021;-88
2021/01/27 07:06:50;;;;;;;5.30;4.53;;;3.10;85.40;;;;;;5059124;28;20021;-90
2021/01/27 07:09:25;;;;;;;4.53;3.42;;;3.10;85.60;;;;;;5045090;28;20179;-88
2021/01/27 07:12:23;;;;;;;3.17;2.72;;;3.10;85.70;;;;;;5035487;28;20025;-87
2021/01/27 07:14:57;;;;;;;5.10;3.88;;;3.10;85.70;;;;;;5015170;28;20033;-86
2021/01/27 07:17:52;;;;;;;6.32;4.93;;;3.10;85.80;;;;;;5044649;28;20031;-85
2021/01/27 07:20:31;;;;;;;4.60;4.07;;;3.00;86.00;;;;;;5031993;28;20031;-86
2021/01/27 07:23:21;;;;;;;5.25;3.50;;;3.10;86.10;;;;;;5028387;28;20485;-87
2021/01/27 07:25:58;;;;;;;3.92;3.40;;;3.00;86.10;;;;;;5056940;28;20031;-88
2021/01/27 07:28:38;;;;;;;4.43;4.03;;;3.00;86.20;;;;;;5053296;28;20033;-88
2021/01/27 07:31:20;;;;;;;4.65;4.20;;;3.10;86.20;;;;;;5032910;28;20026;-87
2021/01/27 07:33:46;;;;;;;4.15;3.38;;;3.00;86.20;;;;;;5024053;28;20026;-86
2021/01/27 07:36:40;;;;;;;4.15;3.72;;;3.10;86.20;;;;;;5031374;28;20037;-86
2021/01/27 07:39:14;;;;;;;5.05;4.10;;;3.10;86.20;;;;;;5028574;28;20037;-86
2021/01/27 07:41:54;;;;;;;4.57;3.83;;;3.10;86.20;;;;;;5033562;28;20026;-86
2021/01/27 07:44:21;;;;;;;6.60;5.35;;;3.10;86.40;;;;;;5030741;28;20458;-86
2021/01/27 07:47:06;;;;;;;7.15;6.43;;;3.10;86.50;;;;;;5033181;28;20029;-87
2021/01/27 07:49:49;;;;;;;5.63;4.60;;;3.10;86.50;;;;;;5025870;28;20589;-86
2021/01/27 07:52:36;;;;;;;4.97;4.00;;;3.10;86.70;;;;;;5033023;28;20032;-85
2021/01/27 07:55:16;;;;;;;3.42;3.13;;;3.20;86.70;;;;;;5031392;28;20626;-88
2021/01/27 07:57:56;;;;;;;3.38;3.08;;;3.20;86.60;;;;;;5033493;28;20017;-87
2021/01/27 08:00:43;;;;;;;4.63;4.07;;;3.10;86.60;;;;;;5026850;28;20038;-88
2021/01/27 08:03:22;;;;;;;5.05;4.30;;;3.20;86.60;;;;;;5015576;28;20037;-88
2021/01/27 08:05:49;;;;;;;3.53;3.13;;;3.20;86.60;;;;;;5034967;28;20034;-86
2021/01/27 08:08:20;;;;;;;6.22;5.10;;;3.30;86.70;;;;;;5043889;28;20021;-88
2021/01/27 08:10:48;;;;;;;4.82;3.85;;;3.30;86.70;;;;;;5036783;28;20109;-87
2021/01/27 08:13:28;;;;;;;4.47;3.63;;;3.30;86.80;;;;;;5051860;28;20025;-83
2021/01/27 08:16:00;;;;;;;4.75;4.10;;;3.30;86.70;;;;;;5026808;28;20120;-88
2021/01/27 08:18:26;;;;;;;4.75;3.95;;;3.30;86.70;;;;;;5047019;28;20131;-87
2021/01/27 08:21:25;;;;;;;3.85;3.45;;;3.30;86.80;;;;;;5030562;28;20026;-87
2021/01/27 08:23:52;;;;;;;6.03;4.95;;;3.30;87.00;;;;;;5040076;28;20025;-87
2021/01/27 08:26:43;;;;;;;4.55;3.47;;;3.30;87.00;;;;;;5049712;28;20490;-88
2021/01/27 08:29:12;;;;;;;4.95;4.45;;;3.40;87.00;;;;;;5039328;28;20041;-89
2021/01/27 08:32:24;;;;;;;4.80;4.25;;;3.40;87.10;;;;;;5061178;28;20038;-88
2021/01/27 08:34:51;;;;;;;5.47;4.88;;;3.40;87.20;;;;;;5054738;28;20044;-87
2021/01/27 08:37:41;;;;;;;2.85;2.65;;;3.40;87.00;;;;;;5045286;28;20022;-85
2021/01/27 08:40:27;;;;;;;4.70;4.25;;;3.40;87.00;;;;;;5041720;28;20040;-87
2021/01/27 08:43:14;;;;;;;3.90;3.50;;;3.50;87.20;;;;;;5091175;22;20046;-86
2021/01/27 08:45:41;;;;;;;3.30;3.00;;;3.50;87.10;;;;;;5026136;28;20223;-87
2021/01/27 08:48:31;;;;;;;5.38;4.30;;;3.60;87.00;;;;;;5024382;28;20025;-88
2021/01/27 08:50:59;;;;;;;4.90;4.40;;;3.60;87.00;;;;;;5010369;28;20030;-89
2021/01/27 08:53:51;;;;;;;4.30;3.90;;;3.60;87.00;;;;;;5034061;28;20022;-89
2021/01/27 08:56:16;;;;;;;4.05;3.65;;;3.60;87.00;;;;;;5033560;28;20022;-89
2021/01/27 08:59:20;;;;;;;3.88;3.47;;;3.70;87.00;;;;;;5021519;28;20089;-87
2021/01/27 09:04:36;;;;;;;3.35;3.05;;;3.70;86.90;;;;;;5325687;22;20112;-86
2021/01/27 09:07:07;;;;;;;5.95;5.35;;;3.90;87.00;;;;;;4990027;28;20038;-88
2021/01/27 09:09:49;;;;;;;3.28;2.97;;;3.70;86.90;;;;;;5020654;28;20057;-90
2021/01/27 09:12:40;;;;;;;2.60;2.40;;;3.70;87.00;;;;;;5192189;22;20016;-88
2021/01/27 09:15:07;;;;;;;3.15;2.85;;;3.80;86.90;;;;;;4984386;28;20042;-88
2021/01/27 09:17:35;;;;;;;2.40;2.20;;;3.80;86.90;;;;;;4983206;28;20054;-88
2021/01/27 09:20:33;;;;;;;2.35;2.15;;;3.90;86.90;;;;;;4985834;28;20023;-88
2021/01/27 09:23:04;;;;;;;3.72;2.95;;;4.00;86.80;;;;;;4964939;28;20077;-92
2021/01/27 09:25:51;;;;;;;2.95;2.65;;;3.90;86.70;;;;;;5395794;23;20017;-88
2021/01/27 09:28:23;;;;;;;3.40;3.10;;;4.00;86.80;;;;;;5037062;28;20056;-91
2021/01/27 09:30:56;;;;;;;2.03;1.83;;;4.00;86.70;;;;;;5045500;28;20025;-89
2021/01/27 09:33:35;;;;;;;4.53;3.97;;;4.00;86.80;;;;;;5056669;28;20752;-87
2021/01/27 09:36:14;;;;;;;3.78;3.20;;;4.00;86.70;;;;;;5041153;28;20025;-92
2021/01/27 09:38:42;;;;;;;3.40;3.10;;;4.00;86.70;;;;;;5041800;28;20021;-88
2021/01/27 09:41:14;;;;;;;3.08;2.72;;;4.10;86.70;;;;;;5033212;28;20021;-86
2021/01/27 09:43:47;;;;;;;4.00;3.60;;;4.10;86.60;;;;;;5032789;28;20534;-89
2021/01/27 09:46:24;;;;;;;2.03;1.88;;;4.10;86.60;;;;;;5036898;28;20474;-90
2021/01/27 09:48:51;;;;;;;2.88;2.65;;;4.20;86.70;;;;;;5014030;28;20042;-89
2021/01/27 09:51:17;;;;;;;3.97;3.25;;;4.10;86.40;;;;;;5033238;28;20033;-89
2021/01/27 09:53:44;;;;;;;4.00;3.47;;;4.20;86.50;;;;;;5036567;28;20017;-92
2021/01/27 09:56:15;;;;;;;3.38;3.08;;;4.20;86.50;;;;;;5017369;28;20067;-89
2021/01/27 09:58:42;;;;;;;3.42;3.00;;;4.20;86.60;;;;;;5033425;28;20489;-89
2021/01/27 10:01:16;;;;;;;3.90;3.38;;;4.20;87.10;;;;;;5013370;28;20101;-92
2021/01/27 10:03:43;;;;;;;3.45;3.15;;;4.20;86.50;;;;;;5007338;28;20482;-91
2021/01/27 10:06:29;;;;;;;3.22;2.67;;;4.30;86.60;;;;;;5030741;28;20017;-91
2021/01/27 10:08:59;;;;;;;3.03;2.72;;;4.30;86.60;;;;;;5029379;28;20496;-89
2021/01/27 10:11:28;;;;;;;4.03;3.63;;;4.30;86.50;;;;;;5026454;28;20037;-88
2021/01/27 10:14:05;;;;;;;4.57;3.53;;;4.30;86.50;;;;;;5034454;28;20025;-88
2021/01/27 10:16:31;;;;;;;2.53;2.33;;;4.40;86.60;;;;;;5038619;28;20021;-91
2021/01/27 10:19:07;;;;;;;5.03;3.63;;;4.40;86.60;;;;;;5034239;28;20091;-91
2021/01/27 10:21:44;;;;;;;4.30;3.83;;;4.40;86.50;;;;;;5013285;28;20029;-88
2021/01/27 10:24:10;;;;;;;2.92;2.08;;;4.40;86.50;;;;;;5013274;28;20065;-92
2021/01/27 10:26:40;;;;;;;4.88;3.90;;;4.40;86.40;;;;;;5030605;28;20057;-89
2021/01/27 10:29:36;;;;;;;4.00;3.35;;;4.50;86.50;;;;;;5012689;28;20821;-89
2021/01/27 10:32:43;;;;;;;3.35;3.05;;;4.50;86.30;;;;;;5017496;28;20065;-88
2021/01/27 10:35:23;;;;;;;3.72;3.33;;;4.50;86.30;;;;;;4972248;28;20083;-91
2021/01/27 10:38:05;;;;;;;5.65;5.00;;;4.50;86.40;;;;;;5018176;28;20131;-88
2021/01/27 10:40:32;;;;;;;5.28;4.43;;;4.60;86.40;;;;;;5031752;28;20071;-88
2021/01/27 10:43:00;;;;;;;3.63;3.22;;;4.60;86.40;;;;;;5016712;28;20029;-90
2021/01/27 10:45:39;;;;;;;5.10;4.35;;;4.60;86.40;;;;;;5033854;28;20030;-90
2021/01/27 10:48:23;;;;;;;4.80;4.22;;;4.60;86.50;;;;;;5031430;28;20045;-89
2021/01/27 10:51:05;;;;;;;2.95;2.65;;;4.60;86.50;;;;;;5033555;28;20045;-91
2021/01/27 10:53:37;;;;;;;3.63;3.30;;;4.70;86.50;;;;;;5033551;28;20036;-91
2021/01/27 10:56:03;;;;;;;3.38;2.97;;;4.70;86.40;;;;;;5032046;28;20025;-90
2021/01/27 10:58:29;;;;;;;3.78;3.33;;;4.70;86.30;;;;;;5019926;28;20475;-89
2021/01/27 11:00:55;;;;;;;4.40;3.58;;;4.70;86.30;;;;;;5030176;28;20056;-89
2021/01/27 11:03:21;;;;;;;6.25;5.60;;;4.70;86.30;;;;;;5033552;28;20061;-91
2021/01/27 11:05:46;;;;;;;6.68;5.60;;;4.80;86.40;;;;;;5014923;28;20021;-91
2021/01/27 11:08:20;;;;;;;6.38;5.47;;;4.80;86.50;;;;;;5036157;28;20018;-90
2021/01/27 11:10:45;;;;;;;5.38;4.55;;;4.80;86.40;;;;;;5033014;28;20036;-90
2021/01/27 11:13:11;;;;;;;6.95;5.70;;;4.80;86.50;;;;;;5031062;28;20055;-87
2021/01/27 11:15:37;;;;;;;5.93;4.57;;;4.70;86.50;;;;;;5016016;28;20040;-93
2021/01/27 11:18:03;;;;;;;7.40;6.43;;;4.90;86.60;;;;;;5033059;28;20026;-93
2021/01/27 11:20:29;;;;;;;5.40;4.63;;;4.90;86.70;;;;;;5022277;28;20026;-92
2021/01/27 11:22:55;;;;;;;6.43;5.13;;;4.80;86.80;;;;;;5030588;28;20026;-91
2021/01/27 11:25:24;;;;;;;5.25;4.10;;;4.90;87.00;;;;;;4998995;28;20041;-93
2021/01/27 11:27:50;;;;;;;4.70;4.07;;;4.90;86.90;;;;;;5011526;28;20085;-91
2021/01/27 11:30:18;;;;;;;7.25;6.10;;;5.00;86.90;;;;;;5033234;28;20152;-90
2021/01/27 11:32:44;;;;;;;8.30;7.20;;;5.00;86.80;;;;;;5035263;28;20018;-91
2021/01/27 11:35:10;;;;;;;6.55;5.38;;;5.10;86.80;;;;;;5048242;28;20056;-93
2021/01/27 11:37:36;;;;;;;8.10;6.53;;;5.10;86.80;;;;;;5041835;28;20037;-93
2021/01/27 11:40:03;;;;;;;7.57;6.18;;;5.10;86.80;;;;;;5042665;28;20367;-93
2021/01/27 11:42:29;;;;;;;6.82;5.70;;;5.10;86.80;;;;;;5036209;28;20017;-94
2021/01/27 11:44:55;;;;;;;6.00;4.90;;;5.20;86.80;;;;;;5027723;28;20072;-94
2021/01/27 11:47:20;;;;;;;3.55;2.70;;;5.20;86.80;;;;;;5047312;28;20018;-92
2021/01/27 11:49:46;;;;;;;5.40;4.50;;;5.30;86.70;;;;;;5050066;28;20105;-91
2021/01/27 11:52:13;;;;;;;6.82;5.55;;;5.30;86.60;;;;;;5049686;28;20544;-92
2021/01/27 11:57:27;;;;;;;6.05;5.13;;;5.40;86.60;;;;;;5299225;22;20058;-94
2021/01/27 11:59:53;;;;;;;7.05;5.65;;;5.40;86.50;;;;;;5027385;28;20081;-95
2021/01/27 12:02:19;;;;;;;7.57;5.63;;;5.40;86.50;;;;;;5032401;28;20049;-92
2021/01/27 12:04:45;;;;;;;6.20;5.18;;;5.40;86.60;;;;;;5036100;28;20056;-94
2021/01/27 12:07:10;;;;;;;7.03;5.60;;;5.50;86.60;;;;;;5017443;28;20040;-93
2021/01/27 12:09:36;;;;;;;8.32;6.28;;;5.50;86.50;;;;;;5000710;28;20459;-93
2021/01/27 12:12:09;;;;;;;6.35;4.80;;;5.50;86.50;;;;;;5027381;28;20041;-95
2021/01/27 12:14:35;;;;;;;9.13;6.45;;;5.60;86.50;;;;;;5016253;28;20017;-92
2021/01/27 12:17:02;;;;;;;7.13;5.80;;;5.60;86.50;;;;;;5004016;28;20041;-89
2021/01/27 12:19:28;;;;;;;7.78;6.30;;;5.60;86.70;;;;;;5019682;28;20032;-92
2021/01/27 12:21:54;;;;;;;7.88;5.97;;;5.70;86.70;;;;;;5024935;28;20021;-91
2021/01/27 12:24:19;;;;;;;7.82;6.30;;;5.70;86.70;;;;;;5020877;28;20295;-90
2021/01/27 12:26:47;;;;;;;5.70;4.55;;;5.80;86.60;;;;;;5020299;28;20010;-90
2021/01/27 12:29:13;;;;;;;5.40;4.13;;;5.80;86.50;;;;;;5017966;28;20041;-91
2021/01/27 12:31:39;;;;;;;8.20;6.13;;;5.90;86.50;;;;;;5026062;28;20010;-95
2021/01/27 12:34:05;;;;;;;9.32;6.80;;;5.90;86.50;;;;;;5001872;28;20044;-93
2021/01/27 12:36:31;;;;;;;8.20;6.53;;;5.90;86.50;;;;;;5023776;28;20020;-92
2021/01/27 12:38:57;;;;;;;9.55;6.60;;;5.90;86.50;;;;;;5021252;28;20026;-91
2021/01/27 12:41:23;;;;;;;7.65;5.70;;;5.90;86.50;;;;;;5013055;28;20144;-89
2021/01/27 12:43:50;;;;;;;9.40;6.70;;;6.00;86.50;;;;;;5018675;28;20120;-87
2021/01/27 12:46:16;;;;;;;5.75;4.32;;;6.00;86.40;;;;;;5010731;28;20037;-89
2021/01/27 12:48:42;;;;;;;5.55;4.05;;;6.00;86.30;;;;;;5013277;28;20057;-89
2021/01/27 12:51:07;;;;;;;10.13;6.30;;;6.10;86.30;;;;;;5016875;28;20064;-92
2021/01/27 12:53:33;;;;;;;8.07;5.88;;;6.00;86.30;;;;;;5018783;28;20021;-95
2021/01/27 12:55:59;;;;;;;9.13;5.88;;;6.10;86.30;;;;;;5021923;28;20419;-89
2021/01/27 12:58:25;;;;;;;8.13;6.18;;;6.20;86.30;;;;;;5020532;28;20021;-93
2021/01/27 13:00:51;;;;;;;7.22;5.00;;;6.20;86.80;;;;;;5021763;28;20558;-89
2021/01/27 13:03:17;;;;;;;10.02;7.65;;;6.20;86.20;;;;;;5020778;28;20053;-90
2021/01/27 13:05:43;;;;;;;12.32;9.20;;;6.20;86.30;;;;;;5020926;28;20033;-90
2021/01/27 13:08:09;;;;;;;10.68;7.80;;;6.20;86.30;;;;;;5019366;28;20025;-88
2021/01/27 13:10:40;;;;;;;9.65;7.32;;;6.20;86.30;;;;;;5009604;28;20042;-92
2021/01/27 13:13:06;;;;;;;6.70;5.00;;;6.30;86.30;;;;;;4992125;28;20057;-90
2021/01/27 13:15:32;;;;;;;8.25;6.03;;;6.30;86.30;;;;;;5012075;28;20467;-94
2021/01/27 13:17:58;;;;;;;9.20;6.80;;;6.30;86.30;;;;;;4992010;28;20471;-93
2021/01/27 13:20:25;;;;;;;10.55;7.72;;;6.40;86.30;;;;;;5007686;28;20021;-89
2021/01/27 13:22:50;;;;;;;9.00;6.60;;;6.30;86.30;;;;;;5002305;28;20030;-92
2021/01/27 13:25:19;;;;;;;10.48;8.00;;;6.50;86.40;;;;;;5014914;28;20044;-91
2021/01/27 13:27:46;;;;;;;8.45;6.50;;;6.40;86.40;;;;;;5002020;28;20037;-94
2021/01/27 13:30:13;;;;;;;10.68;6.93;;;6.50;86.50;;;;;;5014022;28;20069;-89
2021/01/27 13:32:39;;;;;;;13.20;9.60;;;6.40;86.40;;;;;;5009438;28;20022;-92
2021/01/27 13:35:06;;;;;;;10.63;7.53;;;6.50;86.50;;;;;;5010016;28;20431;-94